Terminal Aerodrome Forecast
Issued by NWS

Home | Current Version | Previous Version | Text Only | Print | Product List | Glossary On
Versions: 1 2 3 4 5 6 7 8 9 10 11 12 13 14 15 16 17 18 19 20 21 22 23 24 25 26 27 28 29 30 31 32 33 34 35 36 37 38 39 40 41 42 43 44 45 46 47 48 49 50
160
FTUS46 KEKA 110912 CCB
TAFACV
TAF COR
KACV 110912Z 1108/1206 VRB04KT P6SM SKC
     FM111200 10004KT P6SM SKC
     FM111600 12005KT P6SM BKN050
     FM111800 VRB06KT P6SM VCSH BKN050
     FM120000 29006KT P6SM VCSH SCT250
     FM120200 VRB04KT P6SM VCSH OVC070=

USA.gov is the U.S. government's official web portal to all federal, state and local government web resources and services.